createdAt,value
2022-08-22T00:00:55.005Z,2.00
2022-08-22T00:02:52.802Z,1.85
2022-08-22T00:03:03.075Z,1.88
2022-08-22T00:03:11.356Z,1.92
2022-08-22T00:03:32.698Z,2.17
2022-08-22T00:06:22.430Z,2.10
2022-08-22T00:09:01.821Z,2.08
2022-08-22T00:11:43.675Z,2.00
2022-08-22T00:14:20.817Z,1.83
2022-08-22T00:17:01.689Z,2.33
2022-08-22T00:19:43.895Z,1.58
2022-08-22T00:22:20.718Z,1.80
2022-08-22T00:24:57.500Z,1.80
2022-08-22T00:27:32.702Z,2.20
2022-08-22T00:30:09.251Z,1.98
2022-08-22T00:32:43.520Z,2.40
2022-08-22T00:35:20.927Z,1.88
2022-08-22T00:37:58.178Z,2.00
2022-08-22T00:40:37.236Z,1.80
2022-08-22T00:43:31.035Z,1.90
2022-08-22T00:46:21.329Z,1.90
2022-08-22T00:49:09.740Z,2.10
2022-08-22T00:52:04.540Z,2.22
2022-08-22T00:54:53.191Z,2.10
2022-08-22T00:57:54.633Z,2.17
2022-08-22T01:01:12.656Z,2.20
2022-08-22T01:04:13.456Z,2.30
2022-08-22T01:06:54.309Z,2.00
2022-08-22T01:09:36.404Z,1.75
2022-08-22T01:12:25.196Z,1.70
2022-08-22T01:14:59.272Z,2.15
2022-08-22T01:18:00.697Z,2.13
2022-08-22T01:20:59.539Z,1.60
2022-08-22T01:24:07.409Z,2.35
2022-08-22T01:27:14.286Z,1.98
2022-08-22T01:30:16.475Z,2.20
2022-08-22T01:33:25.458Z,2.45
2022-08-22T01:36:29.688Z,2.20
2022-08-22T01:39:22.051Z,2.10
2022-08-22T01:42:31.880Z,2.47
2022-08-22T01:45:44.709Z,3.05
2022-08-22T01:48:20.265Z,2.55
2022-08-22T01:50:53.553Z,3.10
2022-08-22T01:53:29.280Z,2.95
2022-08-22T01:56:08.460Z,3.10
2022-08-22T01:58:40.302Z,3.08
2022-08-22T02:01:24.564Z,3.13
2022-08-22T02:04:01.485Z,2.90
2022-08-22T02:06:41.998Z,2.90
2022-08-22T02:09:24.349Z,3.00
2022-08-22T02:11:56.671Z,2.75
2022-08-22T02:14:39.167Z,2.55
2022-08-22T02:17:18.445Z,2.60
2022-08-22T02:19:55.495Z,2.13
2022-08-22T02:22:34.174Z,2.42
2022-08-22T02:25:10.497Z,2.80
2022-08-22T02:27:50.401Z,2.38
2022-08-22T02:30:23.637Z,3.00
2022-08-22T02:33:04.193Z,2.90
2022-08-22T02:35:36.820Z,3.10
2022-08-22T02:38:20.490Z,3.20
2022-08-22T02:41:05.164Z,3.03
2022-08-22T02:43:41.171Z,3.00
2022-08-22T02:46:18.586Z,2.97
2022-08-22T02:48:56.169Z,3.20
2022-08-22T02:51:35.953Z,3.40
2022-08-22T02:54:13.546Z,3.03
2022-08-22T02:56:50.909Z,3.00
2022-08-22T02:59:32.605Z,3.10
2022-08-22T03:02:30.177Z,3.40
2022-08-22T03:05:01.405Z,3.35
2022-08-22T03:07:42.290Z,3.55
2022-08-22T03:10:21.324Z,3.80
2022-08-22T03:13:00.583Z,3.72
2022-08-22T03:15:37.992Z,4.53
2022-08-22T03:18:19.530Z,4.38
2022-08-22T03:20:54.076Z,4.65
2022-08-22T03:23:35.677Z,4.32
2022-08-22T03:26:14.452Z,4.45
2022-08-22T03:28:59.093Z,4.50
2022-08-22T03:31:30.240Z,5.03
2022-08-22T03:34:22.441Z,4.80
2022-08-22T03:37:03.658Z,4.82
2022-08-22T03:39:52.449Z,5.00
2022-08-22T03:42:56.261Z,5.28
2022-08-22T03:46:03.357Z,4.78
2022-08-22T03:48:58.122Z,5.40
2022-08-22T03:51:41.792Z,5.75
2022-08-22T03:54:34.918Z,6.38
2022-08-22T03:57:28.758Z,6.00
2022-08-22T04:00:11.517Z,6.13
2022-08-22T04:03:06.084Z,6.45
2022-08-22T04:06:12.605Z,7.00
2022-08-22T04:12:09.004Z,7.43
2022-08-22T04:14:57.219Z,7.82
2022-08-22T04:17:34.511Z,7.75
2022-08-22T04:20:33.778Z,8.13
2022-08-22T04:23:25.422Z,8.18
2022-08-22T04:25:58.559Z,7.75
2022-08-22T04:28:35.456Z,8.30
2022-08-22T04:31:09.442Z,7.65
2022-08-22T04:33:44.902Z,7.80
2022-08-22T04:36:21.872Z,8.25
2022-08-22T04:38:55.009Z,7.70
2022-08-22T04:41:34.518Z,7.68
2022-08-22T04:44:07.033Z,7.50
2022-08-22T04:46:42.366Z,8.85
2022-08-22T04:49:16.472Z,7.65
2022-08-22T04:51:50.477Z,7.50
2022-08-22T04:54:38.170Z,7.32
2022-08-22T04:57:22.378Z,7.93
2022-08-22T04:59:51.099Z,7.80
2022-08-22T05:02:24.675Z,7.82
2022-08-22T05:05:01.767Z,7.38
2022-08-22T05:07:36.436Z,6.60
2022-08-22T05:10:12.140Z,6.97
2022-08-22T05:12:46.167Z,6.43
2022-08-22T05:15:23.188Z,6.07
2022-08-22T05:17:54.990Z,6.00
2022-08-22T05:20:28.479Z,5.88
2022-08-22T05:23:01.497Z,6.35
2022-08-22T05:25:39.045Z,5.82
2022-08-22T05:28:13.315Z,5.90
2022-08-22T05:30:41.675Z,5.60
2022-08-22T05:33:17.495Z,5.90
2022-08-22T05:35:51.561Z,5.88
2022-08-22T05:38:30.825Z,7.57
2022-08-22T05:41:06.704Z,6.75
2022-08-22T05:43:39.680Z,6.13
2022-08-22T05:46:10.976Z,6.13
2022-08-22T05:51:51.616Z,6.70
2022-08-22T05:54:33.649Z,7.63
2022-08-22T05:57:13.957Z,7.07
2022-08-22T05:59:45.214Z,7.45
2022-08-22T06:02:20.571Z,8.13
2022-08-22T06:04:52.476Z,8.35
2022-08-22T06:07:24.779Z,8.30
2022-08-22T06:10:08.546Z,8.77
2022-08-22T06:12:43.240Z,8.60
2022-08-22T06:15:21.058Z,8.93
2022-08-22T06:17:52.228Z,8.80
2022-08-22T06:20:23.429Z,7.68
2022-08-22T06:22:54.707Z,8.10
2022-08-22T06:25:26.327Z,8.45
2022-08-22T06:27:56.171Z,7.45
2022-08-22T06:30:30.702Z,7.72
2022-08-22T06:33:03.875Z,7.38
2022-08-22T06:35:54.969Z,7.15
2022-08-22T06:38:28.508Z,7.05
2022-08-22T06:40:58.296Z,7.95
2022-08-22T06:43:26.852Z,7.00
2022-08-22T06:45:56.548Z,7.95
2022-08-22T06:48:25.243Z,7.25
2022-08-22T06:50:58.936Z,7.70
2022-08-22T06:53:33.908Z,7.35
2022-08-22T06:56:06.069Z,8.02
2022-08-22T06:58:38.966Z,8.35
2022-08-22T07:01:14.054Z,8.38
2022-08-22T07:03:46.208Z,8.30
2022-08-22T07:06:17.322Z,9.00
2022-08-22T07:08:46.061Z,8.70
2022-08-22T07:11:18.661Z,8.70
2022-08-22T07:13:52.734Z,8.90
2022-08-22T07:16:29.981Z,8.18
2022-08-22T07:18:59.055Z,8.85
2022-08-22T07:21:29.397Z,8.32
2022-08-22T07:24:01.373Z,7.70
2022-08-22T07:26:34.879Z,7.88
2022-08-22T07:29:11.351Z,8.48
2022-08-22T07:31:51.257Z,7.80
2022-08-22T07:34:34.095Z,8.43
2022-08-22T07:37:07.540Z,8.10
2022-08-22T07:39:39.895Z,7.93
2022-08-22T07:42:17.178Z,8.40
2022-08-22T07:45:02.113Z,8.27
2022-08-22T07:47:46.013Z,7.32
2022-08-22T07:50:24.749Z,7.78
2022-08-22T07:55:24.169Z,9.05
2022-08-22T07:57:56.945Z,8.25
2022-08-22T08:00:26.562Z,7.60
2022-08-22T08:03:00.340Z,7.65
2022-08-22T08:05:36.033Z,7.43
2022-08-22T08:08:09.197Z,7.00
2022-08-22T08:10:44.077Z,6.68
2022-08-22T08:13:17.900Z,8.25
2022-08-22T08:15:46.685Z,7.65
2022-08-22T08:18:23.518Z,7.63
2022-08-22T08:20:53.886Z,7.72
2022-08-22T08:23:23.742Z,8.82
2022-08-22T08:26:04.649Z,7.97
2022-08-22T08:28:40.156Z,9.48
2022-08-22T08:31:23.166Z,9.20
2022-08-22T08:33:59.574Z,9.93
2022-08-22T08:36:39.461Z,10.18
2022-08-22T08:39:19.446Z,9.10
2022-08-22T08:42:13.474Z,9.30
2022-08-22T08:45:17.272Z,9.63
2022-08-22T08:48:07.588Z,8.45
2022-08-22T08:51:01.957Z,9.98
2022-08-22T08:53:54.185Z,9.27
2022-08-22T08:56:31.789Z,10.05
2022-08-22T08:59:10.059Z,8.95
2022-08-22T09:02:06.207Z,10.18
2022-08-22T09:05:08.199Z,10.68
2022-08-22T09:08:24.788Z,10.02
2022-08-22T09:11:31.101Z,9.73
2022-08-22T09:14:16.599Z,10.13
2022-08-22T09:17:07.122Z,10.18
2022-08-22T09:19:54.926Z,10.77
2022-08-22T09:22:49.974Z,10.70
2022-08-22T09:25:25.552Z,8.48
2022-08-22T09:28:01.893Z,8.60
2022-08-22T09:30:54.133Z,9.20
2022-08-22T09:33:28.299Z,8.48
2022-08-22T09:36:05.345Z,8.25
2022-08-22T09:38:47.999Z,7.82
2022-08-22T09:41:29.523Z,8.00
2022-08-22T09:44:09.661Z,7.00
2022-08-22T09:46:54.181Z,7.25
2022-08-22T09:49:34.398Z,7.38
2022-08-22T09:52:14.541Z,7.78
2022-08-22T09:55:16.023Z,7.15
2022-08-22T09:57:53.616Z,6.97
2022-08-22T10:00:39.537Z,6.97
2022-08-22T10:03:24.522Z,6.07
2022-08-22T10:06:00.524Z,6.20
2022-08-22T10:08:47.549Z,6.20
2022-08-22T10:11:31.822Z,5.72
2022-08-22T10:14:11.661Z,5.55
2022-08-22T10:16:54.693Z,5.90
2022-08-22T10:19:52.970Z,6.25
2022-08-22T10:22:46.371Z,6.30
2022-08-22T10:25:40.487Z,6.47
2022-08-22T10:28:40.069Z,6.43
2022-08-22T10:31:24.218Z,5.30
2022-08-22T10:34:10.734Z,5.72
2022-08-22T10:36:53.902Z,6.03
2022-08-22T10:39:33.633Z,5.38
2022-08-22T10:42:23.537Z,5.80
2022-08-22T10:45:10.346Z,6.30
2022-08-22T10:47:45.346Z,6.22
2022-08-22T10:50:21.338Z,7.03
2022-08-22T10:53:16.416Z,6.38
2022-08-22T10:55:51.884Z,6.82
2022-08-22T10:58:30.068Z,6.28
2022-08-22T11:01:02.172Z,6.50
2022-08-22T11:03:55.913Z,6.38
2022-08-22T11:06:31.932Z,8.32
2022-08-22T11:09:21.313Z,7.05
2022-08-22T11:11:57.318Z,7.78
2022-08-22T11:15:03.121Z,6.28
2022-08-22T11:18:12.960Z,6.80
2022-08-22T11:20:52.639Z,6.72
2022-08-22T11:23:33.073Z,6.43
2022-08-22T11:26:12.656Z,6.97
2022-08-22T11:29:12.322Z,6.53
2022-08-22T11:31:51.572Z,6.38
2022-08-22T11:34:40.801Z,7.65
2022-08-22T11:37:19.964Z,6.78
2022-08-22T11:40:06.492Z,6.07
2022-08-22T11:42:48.141Z,5.90
2022-08-22T11:45:25.462Z,7.45
2022-08-22T11:48:02.643Z,8.00
2022-08-22T11:50:37.375Z,7.70
2022-08-22T11:53:25.943Z,7.50
2022-08-22T11:56:09.630Z,6.40
2022-08-22T11:58:53.240Z,6.95
2022-08-22T12:01:36.838Z,7.18
2022-08-22T12:04:17.797Z,7.05
2022-08-22T12:06:54.507Z,6.50
2022-08-22T12:09:45.613Z,7.15
2022-08-22T12:12:25.528Z,6.25
2022-08-22T12:15:03.083Z,7.00
2022-08-22T12:18:06.096Z,5.88
2022-08-22T12:20:54.915Z,5.90
2022-08-22T12:23:49.136Z,4.90
2022-08-22T12:26:28.191Z,4.70
2022-08-22T12:29:16.795Z,5.32
2022-08-22T12:32:27.889Z,5.53
2022-08-22T12:35:01.299Z,5.40
2022-08-22T12:37:52.736Z,5.63
2022-08-22T12:40:30.879Z,5.80
2022-08-22T12:43:15.070Z,5.85
2022-08-22T12:46:05.804Z,5.90
2022-08-22T12:48:53.426Z,6.40
2022-08-22T12:51:31.485Z,6.28
2022-08-22T12:54:29.144Z,7.20
2022-08-22T12:57:10.474Z,8.52
2022-08-22T12:59:55.494Z,8.60
2022-08-22T13:02:34.766Z,9.48
2022-08-22T13:05:11.033Z,10.77
2022-08-22T13:07:42.894Z,9.50
2022-08-22T13:10:33.839Z,9.20
2022-08-22T13:13:03.937Z,9.48
2022-08-22T13:15:46.354Z,8.88
2022-08-22T13:18:31.190Z,9.07
2022-08-22T13:21:04.012Z,9.07
2022-08-22T13:23:39.956Z,9.13
2022-08-22T13:26:32.853Z,8.73
2022-08-22T13:29:26.028Z,7.95
2022-08-22T13:32:01.248Z,7.78
2022-08-22T13:34:40.023Z,8.10
2022-08-22T13:37:12.714Z,8.95
2022-08-22T13:39:46.054Z,7.93
2022-08-22T13:42:27.768Z,7.38
2022-08-22T13:45:02.648Z,6.80
2022-08-22T13:47:34.495Z,6.88
2022-08-22T13:50:14.007Z,6.18
2022-08-22T13:52:55.015Z,5.57
2022-08-22T13:55:31.233Z,3.88
2022-08-22T13:58:07.741Z,2.95
2022-08-22T14:01:19.030Z,3.05
2022-08-22T14:03:51.388Z,1.52
2022-08-22T14:06:37.495Z,2.83
2022-08-22T14:13:40.810Z,4.05
2022-08-22T14:16:15.122Z,4.05
2022-08-22T14:18:49.157Z,3.95
2022-08-22T14:21:27.757Z,3.30
2022-08-22T14:24:01.602Z,3.20
2022-08-22T14:26:32.849Z,1.83
2022-08-22T14:29:08.264Z,1.57
2022-08-22T14:31:37.107Z,1.70
2022-08-22T14:34:10.671Z,1.90
2022-08-22T14:36:46.835Z,1.80
2022-08-22T14:39:28.574Z,2.10
2022-08-22T14:42:06.108Z,1.83
2022-08-22T14:44:44.830Z,1.92
2022-08-22T14:47:52.779Z,1.30
2022-08-22T14:50:35.542Z,1.15
2022-08-22T14:53:07.343Z,1.27
2022-08-22T14:55:39.011Z,1.42
2022-08-22T14:58:17.314Z,1.40
2022-08-22T15:00:50.052Z,1.20
2022-08-22T15:03:26.564Z,1.00
2022-08-22T15:05:57.875Z,1.10
2022-08-22T15:08:32.454Z,0.90
2022-08-22T15:11:13.627Z,0.90
2022-08-22T15:13:51.615Z,1.05
2022-08-22T15:16:24.224Z,1.08
2022-08-22T15:18:52.865Z,1.00
2022-08-22T15:21:24.779Z,1.10
2022-08-22T15:23:56.454Z,0.80
2022-08-22T15:26:30.757Z,1.00
2022-08-22T15:29:16.167Z,0.98
2022-08-22T15:31:47.042Z,1.02
2022-08-22T15:34:24.027Z,1.00
2022-08-22T15:37:27.401Z,0.90
2022-08-22T15:40:08.106Z,1.33
2022-08-22T15:42:44.852Z,1.40
2022-08-22T15:45:33.948Z,1.33
2022-08-22T15:48:04.968Z,1.30
2022-08-22T15:50:38.241Z,1.50
2022-08-22T15:53:21.328Z,1.75
2022-08-22T15:56:29.101Z,1.50
2022-08-22T15:59:30.438Z,1.27
2022-08-22T16:02:29.293Z,1.55
2022-08-22T16:05:21.915Z,1.17
2022-08-22T16:08:02.874Z,1.52
2022-08-22T16:10:36.388Z,1.08
2022-08-22T16:13:17.716Z,1.00
2022-08-22T16:16:09.646Z,1.10
2022-08-22T16:19:16.961Z,0.90
2022-08-22T16:22:13.447Z,0.77
2022-08-22T16:25:10.355Z,0.88
2022-08-22T16:27:53.787Z,1.00
2022-08-22T16:30:34.726Z,0.60
2022-08-22T16:33:17.881Z,0.90
2022-08-22T16:36:25.988Z,0.70
2022-08-22T16:38:58.224Z,0.60
2022-08-22T16:41:36.843Z,0.60
2022-08-22T16:44:17.879Z,0.47
2022-08-22T16:46:47.751Z,0.43
2022-08-22T16:49:28.790Z,0.50
2022-08-22T16:52:35.371Z,0.43
2022-08-22T16:55:05.945Z,0.60
2022-08-22T16:57:54.482Z,0.60
2022-08-22T17:00:39.272Z,0.40
2022-08-22T17:03:18.250Z,0.50
2022-08-22T17:05:57.949Z,0.50
2022-08-22T17:08:43.024Z,0.50
2022-08-22T17:11:22.919Z,0.40
2022-08-22T17:14:03.386Z,0.50
2022-08-22T17:16:53.782Z,0.45
2022-08-22T17:19:36.575Z,0.50
2022-08-22T17:22:17.349Z,0.50
2022-08-22T17:24:50.458Z,0.40
2022-08-22T17:27:31.546Z,0.70
2022-08-22T17:30:03.706Z,0.50
2022-08-22T17:32:38.783Z,0.80
2022-08-22T17:35:16.988Z,0.95
2022-08-22T17:38:02.483Z,0.60
2022-08-22T17:40:42.612Z,1.00
2022-08-22T17:43:22.990Z,0.85
2022-08-22T17:46:06.485Z,0.90
2022-08-22T17:48:48.299Z,1.10
2022-08-22T17:51:28.817Z,0.80
2022-08-22T17:54:05.808Z,1.00
2022-08-22T17:56:40.531Z,1.13
2022-08-22T17:59:21.005Z,1.00
2022-08-22T18:01:52.218Z,1.10
2022-08-22T18:04:34.625Z,1.17
2022-08-22T18:07:26.358Z,0.90
2022-08-22T18:10:01.017Z,1.15
2022-08-22T18:12:34.945Z,1.33
2022-08-22T18:15:10.142Z,1.55
2022-08-22T18:17:42.635Z,1.50
2022-08-22T18:20:16.903Z,1.30
2022-08-22T18:22:50.981Z,1.25
2022-08-22T18:25:36.822Z,1.40
2022-08-22T18:28:10.490Z,1.45
2022-08-22T18:30:52.828Z,1.30
2022-08-22T18:33:32.839Z,0.90
2022-08-22T18:36:10.661Z,1.02
2022-08-22T18:38:52.022Z,1.00
2022-08-22T18:41:31.487Z,0.80
2022-08-22T18:44:01.272Z,1.10
2022-08-22T18:46:43.177Z,1.00
2022-08-22T18:49:16.122Z,1.00
2022-08-22T18:51:45.135Z,0.95
2022-08-22T18:54:33.399Z,0.90
2022-08-22T18:57:11.856Z,0.70
2022-08-22T19:00:00.853Z,0.90
2022-08-22T19:02:56.011Z,0.77
2022-08-22T19:05:50.072Z,0.77
2022-08-22T19:08:38.696Z,0.88
2022-08-22T19:11:22.216Z,0.90
2022-08-22T19:14:17.930Z,0.90
2022-08-22T19:17:11.027Z,0.80
2022-08-22T19:20:13.805Z,1.00
2022-08-22T19:22:42.890Z,1.08
2022-08-22T19:25:27.863Z,1.02
2022-08-22T19:28:27.096Z,1.20
2022-08-22T19:31:23.692Z,1.20
2022-08-22T19:36:46.088Z,1.30
2022-08-22T19:39:54.416Z,1.60
2022-08-22T19:42:40.239Z,1.48
2022-08-22T19:45:26.040Z,1.38
2022-08-22T19:47:58.869Z,1.63
2022-08-22T19:50:33.187Z,1.75
2022-08-22T19:53:21.008Z,1.50
2022-08-22T19:56:06.373Z,1.50
2022-08-22T19:58:48.005Z,1.27
2022-08-22T20:01:36.585Z,1.70
2022-08-22T20:04:11.080Z,1.48
2022-08-22T20:06:46.718Z,1.60
2022-08-22T20:12:05.111Z,1.55
2022-08-22T20:14:35.819Z,1.50
2022-08-22T20:17:11.988Z,1.75
2022-08-22T20:22:45.564Z,1.93
2022-08-22T20:25:42.677Z,1.90
2022-08-22T20:28:25.791Z,1.83
2022-08-22T20:33:28.505Z,1.73
2022-08-22T20:36:00.843Z,1.95
2022-08-22T20:38:35.018Z,1.67
2022-08-22T20:41:16.125Z,2.20
2022-08-22T20:43:53.300Z,2.03
2022-08-22T20:46:37.483Z,1.80
2022-08-22T20:49:18.470Z,2.40
2022-08-22T20:51:53.625Z,2.20
2022-08-22T20:54:24.887Z,2.15
2022-08-22T20:57:05.511Z,2.40
2022-08-22T20:59:37.167Z,2.58
2022-08-22T21:02:13.644Z,2.72
2022-08-22T21:04:49.961Z,3.17
2022-08-22T21:07:26.799Z,2.55
2022-08-22T21:10:21.619Z,3.17
2022-08-22T21:13:14.101Z,2.70
2022-08-22T21:15:44.983Z,2.78
2022-08-22T21:18:15.276Z,2.60
2022-08-22T21:20:43.528Z,2.35
2022-08-22T21:23:14.462Z,2.47
2022-08-22T21:25:52.091Z,2.33
2022-08-22T21:28:33.030Z,2.58
2022-08-22T21:31:10.158Z,2.38
2022-08-22T21:33:42.653Z,2.20
2022-08-22T21:36:13.596Z,2.35
2022-08-22T21:38:47.846Z,2.15
2022-08-22T21:41:26.078Z,2.60
2022-08-22T21:43:55.792Z,2.33
2022-08-22T21:46:27.588Z,2.25
2022-08-22T21:49:02.177Z,2.30
2022-08-22T21:51:40.697Z,2.40
2022-08-22T21:54:33.281Z,2.83
2022-08-22T21:57:18.271Z,2.60
2022-08-22T21:59:52.048Z,2.60
2022-08-22T22:02:36.705Z,2.60
2022-08-22T22:05:11.341Z,2.60
2022-08-22T22:07:41.483Z,2.67
2022-08-22T22:10:12.280Z,2.85
2022-08-22T22:12:42.269Z,3.03
2022-08-22T22:15:15.822Z,3.50
2022-08-22T22:17:44.013Z,4.20
2022-08-22T22:20:13.318Z,5.07
2022-08-22T22:22:46.631Z,4.57
2022-08-22T22:25:41.357Z,5.32
2022-08-22T22:28:05.772Z,5.40
2022-08-22T22:30:37.340Z,4.90
2022-08-22T22:33:05.747Z,4.75
2022-08-22T22:35:34.069Z,5.32
2022-08-22T22:38:02.412Z,5.28
2022-08-22T22:40:31.007Z,6.00
2022-08-22T22:43:00.178Z,5.88
2022-08-22T22:45:28.321Z,6.68
2022-08-22T22:47:58.216Z,6.30
2022-08-22T22:50:26.772Z,6.05
2022-08-22T22:52:55.075Z,6.05
2022-08-22T22:55:24.212Z,5.55
2022-08-22T22:57:58.933Z,6.05
2022-08-22T23:00:31.120Z,5.35
2022-08-22T23:03:04.940Z,5.03
2022-08-22T23:05:33.583Z,5.47
2022-08-22T23:08:03.152Z,6.03
2022-08-22T23:10:35.127Z,6.25
2022-08-22T23:13:05.938Z,6.43
2022-08-22T23:15:35.012Z,6.28
2022-08-22T23:18:04.567Z,7.45
2022-08-22T23:20:32.686Z,7.40
2022-08-22T23:23:00.691Z,7.20
2022-08-22T23:25:28.781Z,7.55
2022-08-22T23:27:57.442Z,8.98
2022-08-22T23:30:26.470Z,8.32
2022-08-22T23:32:55.771Z,8.38
2022-08-22T23:35:25.333Z,8.30
2022-08-22T23:37:53.373Z,7.70
2022-08-22T23:40:22.592Z,7.70
2022-08-22T23:42:50.637Z,8.27
2022-08-22T23:45:18.882Z,8.25
2022-08-22T23:47:47.011Z,7.35
2022-08-22T23:50:15.161Z,7.50
2022-08-22T23:52:44.641Z,7.43
2022-08-22T23:55:14.315Z,7.28
2022-08-22T23:57:42.362Z,7.50
